sensor_id;sensor_type;location;lat;lon;timestamp;pressure;altitude;pressure_sealevel;temperature;humidity
18436;BME280;9346;52.006;4.720;2022-09-24T00:01:28;101236.75;;;14.99;100.00
18436;BME280;9346;52.006;4.720;2022-09-24T00:03:57;101237.28;;;15.01;100.00
18436;BME280;9346;52.006;4.720;2022-09-24T00:06:26;101232.28;;;15.03;100.00
18436;BME280;9346;52.006;4.720;2022-09-24T00:08:56;101228.38;;;15.04;100.00
18436;BME280;9346;52.006;4.720;2022-09-24T00:11:27;101236.97;;;15.07;100.00
18436;BME280;9346;52.006;4.720;2022-09-24T00:13:55;101231.41;;;15.07;100.00
18436;BME280;9346;52.006;4.720;2022-09-24T00:16:24;101227.25;;;15.05;100.00
18436;BME280;9346;52.006;4.720;2022-09-24T00:18:52;101220.34;;;15.02;100.00
18436;BME280;9346;52.006;4.720;2022-09-24T00:21:21;101222.28;;;15.02;100.00
18436;BME280;9346;52.006;4.720;2022-09-24T00:23:49;101214.56;;;14.99;100.00
18436;BME280;9346;52.006;4.720;2022-09-24T00:26:18;101219.06;;;14.95;100.00
18436;BME280;9346;52.006;4.720;2022-09-24T00:29:06;101213.28;;;14.91;100.00
18436;BME280;9346;52.006;4.720;2022-09-24T00:31:33;101209.13;;;14.89;100.00
18436;BME280;9346;52.006;4.720;2022-09-24T00:34:00;101208.63;;;14.87;100.00
18436;BME280;9346;52.006;4.720;2022-09-24T00:36:27;101209.72;;;14.86;100.00
18436;BME280;9346;52.006;4.720;2022-09-24T00:38:56;101213.03;;;14.88;100.00
18436;BME280;9346;52.006;4.720;2022-09-24T00:41:25;101209.66;;;14.91;100.00
18436;BME280;9346;52.006;4.720;2022-09-24T00:43:52;101207.16;;;14.94;100.00
18436;BME280;9346;52.006;4.720;2022-09-24T00:46:24;101213.00;;;14.93;100.00
18436;BME280;9346;52.006;4.720;2022-09-24T00:48:54;101205.75;;;14.92;100.00
18436;BME280;9346;52.006;4.720;2022-09-24T00:51:25;101201.63;;;14.89;100.00
18436;BME280;9346;52.006;4.720;2022-09-24T00:53:58;101199.44;;;14.86;100.00
18436;BME280;9346;52.006;4.720;2022-09-24T00:56:27;101202.22;;;14.86;100.00
18436;BME280;9346;52.006;4.720;2022-09-24T00:58:56;101201.38;;;14.86;100.00
18436;BME280;9346;52.006;4.720;2022-09-24T01:01:30;101203.06;;;14.87;100.00
18436;BME280;9346;52.006;4.720;2022-09-24T01:03:58;101200.81;;;14.89;100.00
18436;BME280;9346;52.006;4.720;2022-09-24T01:06:27;101198.28;;;14.92;100.00
18436;BME280;9346;52.006;4.720;2022-09-24T01:08:57;101198.81;;;14.94;100.00
18436;BME280;9346;52.006;4.720;2022-09-24T01:11:37;101191.03;;;14.96;100.00
18436;BME280;9346;52.006;4.720;2022-09-24T01:14:24;101193.50;;;14.98;100.00
18436;BME280;9346;52.006;4.720;2022-09-24T01:17:07;101193.75;;;15.01;100.00
18436;BME280;9346;52.006;4.720;2022-09-24T01:20:02;101192.91;;;15.01;100.00
18436;BME280;9346;52.006;4.720;2022-09-24T01:22:42;101189.28;;;15.00;100.00
18436;BME280;9346;52.006;4.720;2022-09-24T01:25:18;101180.22;;;14.95;100.00
18436;BME280;9346;52.006;4.720;2022-09-24T01:28:04;101175.25;;;14.92;100.00
18436;BME280;9346;52.006;4.720;2022-09-24T01:30:36;101175.34;;;14.87;100.00
18436;BME280;9346;52.006;4.720;2022-09-24T01:33:08;101179.19;;;14.86;100.00
18436;BME280;9346;52.006;4.720;2022-09-24T01:35:41;101173.44;;;14.82;100.00
18436;BME280;9346;52.006;4.720;2022-09-24T01:38:12;101169.00;;;14.81;100.00
18436;BME280;9346;52.006;4.720;2022-09-24T01:40:41;101166.00;;;14.78;100.00
18436;BME280;9346;52.006;4.720;2022-09-24T01:43:09;101170.50;;;14.74;100.00
18436;BME280;9346;52.006;4.720;2022-09-24T01:45:39;101164.41;;;14.72;100.00
18436;BME280;9346;52.006;4.720;2022-09-24T01:48:07;101163.34;;;14.68;100.00
18436;BME280;9346;52.006;4.720;2022-09-24T01:50:39;101162.78;;;14.66;100.00
18436;BME280;9346;52.006;4.720;2022-09-24T01:53:12;101160.56;;;14.68;100.00
18436;BME280;9346;52.006;4.720;2022-09-24T01:55:45;101158.97;;;14.62;100.00
18436;BME280;9346;52.006;4.720;2022-09-24T01:58:16;101152.88;;;14.60;100.00
18436;BME280;9346;52.006;4.720;2022-09-24T02:00:52;101139.59;;;14.57;100.00
18436;BME280;9346;52.006;4.720;2022-09-24T02:03:24;101148.22;;;14.55;100.00
18436;BME280;9346;52.006;4.720;2022-09-24T02:05:56;101143.25;;;14.52;100.00
18436;BME280;9346;52.006;4.720;2022-09-24T02:08:28;101145.22;;;14.52;100.00
18436;BME280;9346;52.006;4.720;2022-09-24T02:11:02;101148.28;;;14.50;100.00
18436;BME280;9346;52.006;4.720;2022-09-24T02:13:33;101138.81;;;14.51;100.00
18436;BME280;9346;52.006;4.720;2022-09-24T02:16:09;101142.72;;;14.50;100.00
18436;BME280;9346;52.006;4.720;2022-09-24T02:18:42;101136.34;;;14.50;100.00
18436;BME280;9346;52.006;4.720;2022-09-24T02:23:52;101144.72;;;14.45;100.00
18436;BME280;9346;52.006;4.720;2022-09-24T02:26:21;101130.03;;;14.44;100.00
18436;BME280;9346;52.006;4.720;2022-09-24T02:28:48;101138.34;;;14.44;100.00
18436;BME280;9346;52.006;4.720;2022-09-24T02:31:20;101136.13;;;14.46;100.00
18436;BME280;9346;52.006;4.720;2022-09-24T02:33:51;101143.56;;;14.51;100.00
18436;BME280;9346;52.006;4.720;2022-09-24T02:36:37;101140.19;;;14.54;100.00
18436;BME280;9346;52.006;4.720;2022-09-24T02:39:05;101133.00;;;14.53;100.00
18436;BME280;9346;52.006;4.720;2022-09-24T02:41:32;101129.72;;;14.51;100.00
18436;BME280;9346;52.006;4.720;2022-09-24T02:43:59;101132.47;;;14.51;100.00
18436;BME280;9346;52.006;4.720;2022-09-24T02:46:28;101130.22;;;14.53;100.00
18436;BME280;9346;52.006;4.720;2022-09-24T02:48:55;101132.41;;;14.56;100.00
18436;BME280;9346;52.006;4.720;2022-09-24T02:51:22;101136.81;;;14.57;100.00
18436;BME280;9346;52.006;4.720;2022-09-24T02:53:49;101132.41;;;14.56;100.00
18436;BME280;9346;52.006;4.720;2022-09-24T02:56:16;101126.56;;;14.57;100.00
18436;BME280;9346;52.006;4.720;2022-09-24T02:58:43;101122.97;;;14.57;100.00
18436;BME280;9346;52.006;4.720;2022-09-24T03:01:10;101120.78;;;14.54;100.00
18436;BME280;9346;52.006;4.720;2022-09-24T03:03:39;101120.56;;;14.50;100.00
18436;BME280;9346;52.006;4.720;2022-09-24T03:06:06;101114.75;;;14.47;100.00
18436;BME280;9346;52.006;4.720;2022-09-24T03:08:33;101112.56;;;14.44;100.00
18436;BME280;9346;52.006;4.720;2022-09-24T03:11:00;101112.56;;;14.44;100.00
18436;BME280;9346;52.006;4.720;2022-09-24T03:13:27;101109.00;;;14.43;100.00
18436;BME280;9346;52.006;4.720;2022-09-24T03:15:54;101112.00;;;14.47;100.00
18436;BME280;9346;52.006;4.720;2022-09-24T03:18:20;101120.56;;;14.50;100.00
18436;BME280;9346;52.006;4.720;2022-09-24T03:20:56;101123.22;;;14.60;100.00
18436;BME280;9346;52.006;4.720;2022-09-24T03:23:24;101123.19;;;14.65;100.00
18436;BME280;9346;52.006;4.720;2022-09-24T03:25:51;101122.81;;;14.72;100.00
18436;BME280;9346;52.006;4.720;2022-09-24T03:28:18;101113.34;;;14.73;100.00
18436;BME280;9346;52.006;4.720;2022-09-24T03:30:45;101105.63;;;14.70;100.00
18436;BME280;9346;52.006;4.720;2022-09-24T03:36:46;101102.38;;;14.63;100.00
18436;BME280;9346;52.006;4.720;2022-09-24T03:39:13;101099.09;;;14.61;100.00
18436;BME280;9346;52.006;4.720;2022-09-24T03:41:40;101102.16;;;14.59;100.00
18436;BME280;9346;52.006;4.720;2022-09-24T03:44:07;101101.34;;;14.59;100.00
18436;BME280;9346;52.006;4.720;2022-09-24T03:46:34;101102.16;;;14.59;100.00
18436;BME280;9346;52.006;4.720;2022-09-24T03:49:01;101105.22;;;14.58;100.00
18436;BME280;9346;52.006;4.720;2022-09-24T03:51:28;101103.56;;;14.57;100.00
18436;BME280;9346;52.006;4.720;2022-09-24T03:53:57;101100.19;;;14.60;100.00
18436;BME280;9346;52.006;4.720;2022-09-24T03:56:24;101100.44;;;14.63;100.00
18436;BME280;9346;52.006;4.720;2022-09-24T03:58:51;101106.75;;;14.69;100.00
18436;BME280;9346;52.006;4.720;2022-09-24T04:01:18;101107.81;;;14.73;100.00
18436;BME280;9346;52.006;4.720;2022-09-24T04:03:45;101108.91;;;14.77;100.00
18436;BME280;9346;52.006;4.720;2022-09-24T04:06:12;101108.91;;;14.77;100.00
18436;BME280;9346;52.006;4.720;2022-09-24T04:08:39;101105.00;;;14.78;100.00
18436;BME280;9346;52.006;4.720;2022-09-24T04:11:08;101104.44;;;14.76;100.00
18436;BME280;9346;52.006;4.720;2022-09-24T04:13:35;101090.59;;;14.76;100.00
18436;BME280;9346;52.006;4.720;2022-09-24T04:16:03;101098.59;;;14.77;100.00
18436;BME280;9346;52.006;4.720;2022-09-24T04:18:30;101093.06;;;14.77;100.00
18436;BME280;9346;52.006;4.720;2022-09-24T04:20:58;101097.81;;;14.77;100.00
18436;BME280;9346;52.006;4.720;2022-09-24T04:23:25;101092.25;;;14.77;100.00
18436;BME280;9346;52.006;4.720;2022-09-24T04:25:55;101086.16;;;14.75;100.00
18436;BME280;9346;52.006;4.720;2022-09-24T04:28:24;101085.13;;;14.71;100.00
18436;BME280;9346;52.006;4.720;2022-09-24T04:30:50;101088.19;;;14.69;100.00
18436;BME280;9346;52.006;4.720;2022-09-24T04:33:17;101082.94;;;14.68;100.00
18436;BME280;9346;52.006;4.720;2022-09-24T04:35:45;101085.16;;;14.66;100.00
18436;BME280;9346;52.006;4.720;2022-09-24T04:38:12;101085.16;;;14.66;100.00
18436;BME280;9346;52.006;4.720;2022-09-24T04:40:39;101096.25;;;14.66;100.00
18436;BME280;9346;52.006;4.720;2022-09-24T04:43:06;101086.81;;;14.67;100.00
18436;BME280;9346;52.006;4.720;2022-09-24T04:45:35;101094.25;;;14.71;100.00
18436;BME280;9346;52.006;4.720;2022-09-24T04:48:03;101100.63;;;14.72;100.00
18436;BME280;9346;52.006;4.720;2022-09-24T04:50:32;101102.22;;;14.78;100.00
18436;BME280;9346;52.006;4.720;2022-09-24T04:53:04;101102.97;;;14.83;100.00
18436;BME280;9346;52.006;4.720;2022-09-24T04:55:32;101104.56;;;14.89;100.00
18436;BME280;9346;52.006;4.720;2022-09-24T04:57:59;101098.44;;;14.92;100.00
18436;BME280;9346;52.006;4.720;2022-09-24T05:00:26;101100.63;;;14.95;100.00
18436;BME280;9346;52.006;4.720;2022-09-24T05:03:00;101103.59;;;14.99;100.00
18436;BME280;9346;52.006;4.720;2022-09-24T05:05:28;101096.66;;;15.01;100.00
18436;BME280;9346;52.006;4.720;2022-09-24T05:07:55;101099.13;;;15.03;100.00
18436;BME280;9346;52.006;4.720;2022-09-24T05:10:23;101097.72;;;15.05;100.00
18436;BME280;9346;52.006;4.720;2022-09-24T05:12:51;101100.47;;;15.05;100.00
18436;BME280;9346;52.006;4.720;2022-09-24T05:15:18;101102.13;;;15.06;100.00
18436;BME280;9346;52.006;4.720;2022-09-24T05:17:45;101097.13;;;15.08;100.00
18436;BME280;9346;52.006;4.720;2022-09-24T05:20:15;101097.94;;;15.09;100.00
18436;BME280;9346;52.006;4.720;2022-09-24T05:22:43;101102.38;;;15.10;100.00
18436;BME280;9346;52.006;4.720;2022-09-24T05:25:11;101092.91;;;15.11;100.00
18436;BME280;9346;52.006;4.720;2022-09-24T05:27:43;101094.56;;;15.12;100.00
18436;BME280;9346;52.006;4.720;2022-09-24T05:30:09;101095.97;;;15.09;100.00
18436;BME280;9346;52.006;4.720;2022-09-24T05:32:36;101098.47;;;15.11;100.00
18436;BME280;9346;52.006;4.720;2022-09-24T05:35:04;101098.75;;;15.09;100.00
18436;BME280;9346;52.006;4.720;2022-09-24T05:37:34;101098.47;;;15.11;100.00
18436;BME280;9346;52.006;4.720;2022-09-24T05:40:02;101091.78;;;15.12;100.00
18436;BME280;9346;52.006;4.720;2022-09-24T05:42:43;101095.69;;;15.11;100.00
18436;BME280;9346;52.006;4.720;2022-09-24T05:45:11;101092.41;;;15.09;100.00
18436;BME280;9346;52.006;4.720;2022-09-24T05:47:38;101100.94;;;15.12;100.00
18436;BME280;9346;52.006;4.720;2022-09-24T05:50:06;101094.56;;;15.12;100.00
18436;BME280;9346;52.006;4.720;2022-09-24T05:52:35;101099.50;;;15.15;100.00
18436;BME280;9346;52.006;4.720;2022-09-24T05:55:02;101105.88;;;15.15;100.00
18436;BME280;9346;52.006;4.720;2022-09-24T05:57:29;101105.28;;;15.18;100.00
18436;BME280;9346;52.006;4.720;2022-09-24T05:59:56;101108.63;;;15.20;100.00
18436;BME280;9346;52.006;4.720;2022-09-24T06:02:23;101110.53;;;15.20;100.00
18436;BME280;9346;52.006;4.720;2022-09-24T06:04:52;101108.38;;;15.17;100.00
18436;BME280;9346;52.006;4.720;2022-09-24T06:07:19;101107.81;;;15.15;100.00
18436;BME280;9346;52.006;4.720;2022-09-24T06:09:49;101108.97;;;15.14;100.00
18436;BME280;9346;52.006;4.720;2022-09-24T06:12:16;101112.56;;;15.14;100.00
18436;BME280;9346;52.006;4.720;2022-09-24T06:14:46;101112.88;;;15.13;100.00
18436;BME280;9346;52.006;4.720;2022-09-24T06:17:13;101113.69;;;15.13;100.00
18436;BME280;9346;52.006;4.720;2022-09-24T06:19:40;101112.03;;;15.12;100.00
18436;BME280;9346;52.006;4.720;2022-09-24T06:22:07;101124.78;;;15.13;100.00
18436;BME280;9346;52.006;4.720;2022-09-24T06:24:34;101122.28;;;15.12;100.00
18436;BME280;9346;52.006;4.720;2022-09-24T06:27:03;101117.88;;;15.11;100.00
18436;BME280;9346;52.006;4.720;2022-09-24T06:29:30;101116.25;;;15.10;100.00
18436;BME280;9346;52.006;4.720;2022-09-24T06:31:58;101121.84;;;15.05;100.00
18436;BME280;9346;52.006;4.720;2022-09-24T06:34:26;101126.59;;;15.04;100.00
18436;BME280;9346;52.006;4.720;2022-09-24T06:36:53;101124.59;;;15.05;100.00
18436;BME280;9346;52.006;4.720;2022-09-24T06:39:21;101129.88;;;15.06;100.00
18436;BME280;9346;52.006;4.720;2022-09-24T06:41:48;101131.84;;;15.06;100.00
18436;BME280;9346;52.006;4.720;2022-09-24T06:44:17;101137.69;;;15.04;100.00
18436;BME280;9346;52.006;4.720;2022-09-24T06:46:45;101128.50;;;15.04;100.00
18436;BME280;9346;52.006;4.720;2022-09-24T06:49:12;101135.72;;;15.05;100.00
18436;BME280;9346;52.006;4.720;2022-09-24T06:51:39;101137.69;;;15.04;100.00
18436;BME280;9346;52.006;4.720;2022-09-24T06:54:06;101144.88;;;15.05;100.00
18436;BME280;9346;52.006;4.720;2022-09-24T06:56:34;101140.97;;;15.06;100.00
18436;BME280;9346;52.006;4.720;2022-09-24T06:59:00;101148.19;;;15.07;100.00
18436;BME280;9346;52.006;4.720;2022-09-24T07:01:29;101147.63;;;15.05;100.00
18436;BME280;9346;52.006;4.720;2022-09-24T07:03:57;101160.38;;;15.06;100.00
18436;BME280;9346;52.006;4.720;2022-09-24T07:06:24;101160.69;;;15.05;100.00
18436;BME280;9346;52.006;4.720;2022-09-24T07:09:11;101156.25;;;15.04;100.00
18436;BME280;9346;52.006;4.720;2022-09-24T07:11:38;101162.66;;;15.04;100.00
18436;BME280;9346;52.006;4.720;2022-09-24T07:14:05;101174.03;;;15.03;100.00
18436;BME280;9346;52.006;4.720;2022-09-24T07:16:34;101172.59;;;15.05;100.00
18436;BME280;9346;52.006;4.720;2022-09-24T07:19:01;101174.53;;;15.05;100.00
18436;BME280;9346;52.006;4.720;2022-09-24T07:21:29;101175.09;;;15.07;100.00
18436;BME280;9346;52.006;4.720;2022-09-24T07:23:56;101187.63;;;15.04;100.00
18436;BME280;9346;52.006;4.720;2022-09-24T07:26:24;101180.09;;;15.05;100.00
18436;BME280;9346;52.006;4.720;2022-09-24T07:28:51;101184.28;;;15.02;100.00
18436;BME280;9346;52.006;4.720;2022-09-24T07:31:18;101195.69;;;15.01;100.00
18436;BME280;9346;52.006;4.720;2022-09-24T07:33:47;101194.34;;;14.98;100.00
18436;BME280;9346;52.006;4.720;2022-09-24T07:36:15;101208.50;;;14.97;100.00
18436;BME280;9346;52.006;4.720;2022-09-24T07:38:43;101207.44;;;14.93;100.00
18436;BME280;9346;52.006;4.720;2022-09-24T07:41:10;101210.50;;;14.91;100.00
18436;BME280;9346;52.006;4.720;2022-09-24T07:43:37;101210.81;;;14.90;100.00
18436;BME280;9346;52.006;4.720;2022-09-24T07:46:04;101218.53;;;14.93;100.00
18436;BME280;9346;52.006;4.720;2022-09-24T07:48:31;101216.34;;;14.90;100.00
18436;BME280;9346;52.006;4.720;2022-09-24T07:51:00;101223.00;;;14.89;100.00
18436;BME280;9346;52.006;4.720;2022-09-24T07:53:29;101218.88;;;14.86;100.00
18436;BME280;9346;52.006;4.720;2022-09-24T07:55:58;101221.34;;;14.88;100.00
18436;BME280;9346;52.006;4.720;2022-09-24T07:58:25;101224.66;;;14.90;100.00
18436;BME280;9346;52.006;4.720;2022-09-24T08:00:56;101221.59;;;14.91;100.00
18436;BME280;9346;52.006;4.720;2022-09-24T08:03:24;101226.91;;;14.88;100.00
18436;BME280;9346;52.006;4.720;2022-09-24T08:05:53;101233.59;;;14.82;100.00
18436;BME280;9346;52.006;4.720;2022-09-24T08:08:25;101233.31;;;14.83;100.00
18436;BME280;9346;52.006;4.720;2022-09-24T08:10:54;101236.09;;;14.83;100.00
18436;BME280;9346;52.006;4.720;2022-09-24T08:13:23;101240.28;;;14.81;100.00
18436;BME280;9346;52.006;4.720;2022-09-24T08:15:55;101229.22;;;14.76;100.00
18436;BME280;9346;52.006;4.720;2022-09-24T08:18:23;101236.44;;;14.77;100.00
18436;BME280;9346;52.006;4.720;2022-09-24T08:20:50;101242.59;;;14.74;100.00
18436;BME280;9346;52.006;4.720;2022-09-24T08:23:17;101246.16;;;14.74;100.00
18436;BME280;9346;52.006;4.720;2022-09-24T08:25:49;101241.75;;;14.73;100.00
18436;BME280;9346;52.006;4.720;2022-09-24T08:28:17;101245.06;;;14.75;100.00
18436;BME280;9346;52.006;4.720;2022-09-24T08:30:44;101243.94;;;14.76;100.00
18436;BME280;9346;52.006;4.720;2022-09-24T08:33:11;101247.25;;;14.78;100.00
18436;BME280;9346;52.006;4.720;2022-09-24T08:35:40;101249.47;;;14.76;100.00
18436;BME280;9346;52.006;4.720;2022-09-24T08:38:08;101245.88;;;14.76;100.00
18436;BME280;9346;52.006;4.720;2022-09-24T08:40:38;101251.41;;;14.76;100.00
18436;BME280;9346;52.006;4.720;2022-09-24T08:43:21;101246.16;;;14.74;100.00
18436;BME280;9346;52.006;4.720;2022-09-24T08:45:56;101243.38;;;14.74;100.00
18436;BME280;9346;52.006;4.720;2022-09-24T08:48:46;101243.38;;;14.74;100.00
18436;BME280;9346;52.006;4.720;2022-09-24T08:51:18;101249.00;;;14.69;100.00
18436;BME280;9346;52.006;4.720;2022-09-24T08:53:50;101249.00;;;14.69;100.00
18436;BME280;9346;52.006;4.720;2022-09-24T08:56:24;101251.47;;;14.71;100.00
18436;BME280;9346;52.006;4.720;2022-09-24T08:58:57;101252.28;;;14.71;100.00
18436;BME280;9346;52.006;4.720;2022-09-24T09:01:32;101253.66;;;14.74;100.00
18436;BME280;9346;52.006;4.720;2022-09-24T09:04:16;101248.13;;;14.74;100.00
18436;BME280;9346;52.006;4.720;2022-09-24T09:06:54;101237.03;;;14.74;100.00
18436;BME280;9346;52.006;4.720;2022-09-24T09:09:40;101251.19;;;14.72;100.00
18436;BME280;9346;52.006;4.720;2022-09-24T09:12:12;101252.56;;;14.70;100.00
18436;BME280;9346;52.006;4.720;2022-09-24T09:14:48;101247.31;;;14.68;100.00
18436;BME280;9346;52.006;4.720;2022-09-24T09:17:28;101254.78;;;14.73;100.00
18436;BME280;9346;52.006;4.720;2022-09-24T09:20:01;101253.69;;;14.69;100.00
18436;BME280;9346;52.006;4.720;2022-09-24T09:22:34;101258.97;;;14.70;100.00
18436;BME280;9346;52.006;4.720;2022-09-24T09:25:14;101266.44;;;14.70;100.00
18436;BME280;9346;52.006;4.720;2022-09-24T09:27:45;101261.44;;;14.72;100.00
18436;BME280;9346;52.006;4.720;2022-09-24T09:30:16;101260.03;;;14.74;100.00
18436;BME280;9346;52.006;4.720;2022-09-24T09:33:15;101261.16;;;14.73;100.00
18436;BME280;9346;52.006;4.720;2022-09-24T09:35:53;101266.16;;;14.71;100.00
18436;BME280;9346;52.006;4.720;2022-09-24T09:38:24;101271.94;;;14.75;100.00
18436;BME280;9346;52.006;4.720;2022-09-24T09:41:00;101269.72;;;14.77;100.00
18436;BME280;9346;52.006;4.720;2022-09-24T09:43:28;101274.72;;;14.75;100.00
18436;BME280;9346;52.006;4.720;2022-09-24T09:46:04;101289.44;;;14.75;100.00
18436;BME280;9346;52.006;4.720;2022-09-24T09:48:42;101271.13;;;14.74;100.00
18436;BME280;9346;52.006;4.720;2022-09-24T09:51:17;101279.16;;;14.76;100.00
18436;BME280;9346;52.006;4.720;2022-09-24T09:53:54;101283.00;;;14.80;100.00
18436;BME280;9346;52.006;4.720;2022-09-24T09:56:24;101290.22;;;14.76;100.00
18436;BME280;9346;52.006;4.720;2022-09-24T09:59:00;101285.81;;;14.75;100.00
18436;BME280;9346;52.006;4.720;2022-09-24T10:01:35;101290.22;;;14.76;100.00
18436;BME280;9346;52.006;4.720;2022-09-24T10:04:23;101292.13;;;14.80;100.00
18436;BME280;9346;52.006;4.720;2022-09-24T10:07:02;101296.34;;;14.78;100.00
18436;BME280;9346;52.006;4.720;2022-09-24T10:09:30;101293.56;;;14.78;100.00
18436;BME280;9346;52.006;4.720;2022-09-24T10:12:05;101292.44;;;14.79;100.00
18436;BME280;9346;52.006;4.720;2022-09-24T10:14:33;101308.56;;;14.77;100.00
18436;BME280;9346;52.006;4.720;2022-09-24T10:17:04;101299.38;;;14.76;100.00
18436;BME280;9346;52.006;4.720;2022-09-24T10:19:34;101293.31;;;14.74;100.00
18436;BME280;9346;52.006;4.720;2022-09-24T10:22:09;101304.94;;;14.76;100.00
18436;BME280;9346;52.006;4.720;2022-09-24T10:24:42;101306.00;;;14.80;100.00
18436;BME280;9346;52.006;4.720;2022-09-24T10:27:10;101304.88;;;14.81;100.00
18436;BME280;9346;52.006;4.720;2022-09-24T10:29:38;101301.00;;;14.82;100.00
18436;BME280;9346;52.006;4.720;2022-09-24T10:32:25;101312.69;;;14.79;100.00
18436;BME280;9346;52.006;4.720;2022-09-24T10:34:55;101307.97;;;14.80;100.00
18436;BME280;9346;52.006;4.720;2022-09-24T10:37:23;101308.25;;;14.78;100.00
18436;BME280;9346;52.006;4.720;2022-09-24T10:39:58;101313.81;;;14.78;100.00
18436;BME280;9346;52.006;4.720;2022-09-24T10:42:27;101309.06;;;14.79;100.00
18436;BME280;9346;52.006;4.720;2022-09-24T10:44:56;101309.06;;;14.79;100.00
18436;BME280;9346;52.006;4.720;2022-09-24T10:47:35;101311.84;;;14.79;100.00
18436;BME280;9346;52.006;4.720;2022-09-24T10:50:18;101313.50;;;14.80;100.00
18436;BME280;9346;52.006;4.720;2022-09-24T10:52:52;101304.09;;;14.76;100.00
18436;BME280;9346;52.006;4.720;2022-09-24T10:55:36;101304.38;;;14.74;100.00
18436;BME280;9346;52.006;4.720;2022-09-24T10:58:19;101307.72;;;14.76;100.00
18436;BME280;9346;52.006;4.720;2022-09-24T11:00:59;101315.75;;;14.78;100.00
18436;BME280;9346;52.006;4.720;2022-09-24T11:06:45;101324.28;;;14.81;100.00
18436;BME280;9346;52.006;4.720;2022-09-24T11:09:22;101308.25;;;14.78;100.00
18436;BME280;9346;52.006;4.720;2022-09-24T11:12:02;101318.75;;;14.81;100.00
18436;BME280;9346;52.006;4.720;2022-09-24T11:14:48;101321.00;;;14.79;100.00
18436;BME280;9346;52.006;4.720;2022-09-24T11:17:31;101321.22;;;14.83;100.00
18436;BME280;9346;52.006;4.720;2022-09-24T11:20:21;101323.72;;;14.84;100.00
18436;BME280;9346;52.006;4.720;2022-09-24T11:23:18;101332.28;;;14.88;100.00
18436;BME280;9346;52.006;4.720;2022-09-24T11:25:55;101341.69;;;14.92;100.00
18436;BME280;9346;52.006;4.720;2022-09-24T11:28:36;101326.75;;;14.88;100.00
18436;BME280;9346;52.006;4.720;2022-09-24T11:31:19;101330.06;;;14.90;100.00
18436;BME280;9346;52.006;4.720;2022-09-24T11:34:16;101326.75;;;14.88;100.00
18436;BME280;9346;52.006;4.720;2022-09-24T11:37:01;101323.69;;;14.89;100.00
18436;BME280;9346;52.006;4.720;2022-09-24T11:39:46;101333.91;;;14.94;100.00
18436;BME280;9346;52.006;4.720;2022-09-24T11:42:23;101337.16;;;15.01;100.00
18436;BME280;9346;52.006;4.720;2022-09-24T11:45:11;101327.97;;;15.05;100.00
18436;BME280;9346;52.006;4.720;2022-09-24T11:50:56;101326.81;;;15.11;100.00
18436;BME280;9346;52.006;4.720;2022-09-24T11:53:33;101325.38;;;15.14;100.00
18436;BME280;9346;52.006;4.720;2022-09-24T11:56:09;101317.59;;;15.16;100.00
18436;BME280;9346;52.006;4.720;2022-09-24T11:58:42;101316.50;;;15.12;100.00
18436;BME280;9346;52.006;4.720;2022-09-24T12:01:13;101310.97;;;15.12;100.00
18436;BME280;9346;52.006;4.720;2022-09-24T12:03:46;101320.13;;;15.12;100.00
18436;BME280;9346;52.006;4.720;2022-09-24T12:06:19;101313.72;;;15.12;100.00
18436;BME280;9346;52.006;4.720;2022-09-24T12:08:54;101318.41;;;15.16;100.00
18436;BME280;9346;52.006;4.720;2022-09-24T12:11:29;101322.56;;;15.19;100.00
18436;BME280;9346;52.006;4.720;2022-09-24T12:14:02;101313.38;;;15.23;100.00
18436;BME280;9346;52.006;4.720;2022-09-24T12:16:35;101312.16;;;15.29;100.00
18436;BME280;9346;52.006;4.720;2022-09-24T12:19:09;101306.63;;;15.29;100.00
18436;BME280;9346;52.006;4.720;2022-09-24T12:21:42;101299.41;;;15.28;100.00
18436;BME280;9346;52.006;4.720;2022-09-24T12:24:13;101302.19;;;15.28;100.00
18436;BME280;9346;52.006;4.720;2022-09-24T12:26:46;101302.78;;;15.25;100.00
18436;BME280;9346;52.006;4.720;2022-09-24T12:29:32;101306.09;;;15.27;100.00
18436;BME280;9346;52.006;4.720;2022-09-24T12:32:22;101305.75;;;15.34;100.00
18436;BME280;9346;52.006;4.720;2022-09-24T12:35:16;101305.44;;;15.35;100.00
18436;BME280;9346;52.006;4.720;2022-09-24T12:37:49;101295.75;;;15.38;100.00
18436;BME280;9346;52.006;4.720;2022-09-24T12:40:36;101312.63;;;15.41;100.00
18436;BME280;9346;52.006;4.720;2022-09-24T12:43:19;101307.84;;;15.47;100.00
18436;BME280;9346;52.006;4.720;2022-09-24T12:45:54;101299.50;;;15.47;100.00
18436;BME280;9346;52.006;4.720;2022-09-24T12:48:24;101296.72;;;15.47;100.00
18436;BME280;9346;52.006;4.720;2022-09-24T12:50:56;101313.63;;;15.50;100.00
18436;BME280;9346;52.006;4.720;2022-09-24T12:53:32;101303.88;;;15.53;100.00
18436;BME280;9346;52.006;4.720;2022-09-24T12:56:02;101293.84;;;15.57;100.00
18436;BME280;9346;52.006;4.720;2022-09-24T12:58:37;101289.66;;;15.59;100.00
18436;BME280;9346;52.006;4.720;2022-09-24T13:01:11;101297.09;;;15.64;100.00
18436;BME280;9346;52.006;4.720;2022-09-24T13:03:40;101295.38;;;15.68;100.00
18436;BME280;9346;52.006;4.720;2022-09-24T13:06:29;101299.22;;;15.72;100.00
18436;BME280;9346;52.006;4.720;2022-09-24T13:08:58;101299.16;;;15.77;100.00
18436;BME280;9346;52.006;4.720;2022-09-24T13:11:28;101293.31;;;15.79;100.00
18436;BME280;9346;52.006;4.720;2022-09-24T13:14:06;101293.53;;;15.82;100.00
18436;BME280;9346;52.006;4.720;2022-09-24T13:16:37;101287.97;;;15.82;100.00
18436;BME280;9346;52.006;4.720;2022-09-24T13:19:20;101286.53;;;15.85;100.00
18436;BME280;9346;52.006;4.720;2022-09-24T13:21:53;101279.88;;;15.86;100.00
18436;BME280;9346;52.006;4.720;2022-09-24T13:24:25;101285.94;;;15.88;100.00
18436;BME280;9346;52.006;4.720;2022-09-24T13:26:53;101285.34;;;15.91;100.00